Alburnett, IA

7:51 PM CST on December 24, 2014 (GMT -0600)
KIACENTR2 | Change Station
CLOSE
Current Station
Personal Weather Station
Location: Central City, IA
Elevation: 930 ft
Nearby Weather Stations

Elev 930 ft 42.20 °N, 91.65 °W | Updated 11 seconds ago

Overcast
Overcast
36.0 °F
Feels Like 28 °F
N
11.1
Wind Variable Wind from West
Gusts 15.4 mph

Today
High -- | Low -- °F
--% Chance of Precip.
Yesterday
High -- | Low -- °F
Precip. -- in
7:33 AM 4:39 PM
Waxing Crescent, 12% visible
Pressure 29.71 in
Visibility 10.0 miles
Clouds Overcast 2100 ft
Windchill 28 °F
Dew Point 27 °F
Humidity 69%
Rainfall -999.00 in
Snow Depth Not available.
UV 0.0 out of 12
Pollen .10 out of 12
Air Quality Not available.
Flu Activity Not available.
METAR KCID 250052Z 29012KT 10SM OVC021 01/M01 A2968 RMK AO2 SLP059 T00111006

More Conditions Fewer Conditions

Pressure 29.71 in
Visibility 10.0 miles
Clouds Overcast 2100 ft
Windchill 28 °F
Dew Point 27 °F
Humidity 69%
Rainfall -999.00 in
Snow Depth Not available.
UV 0.0 out of 12
Pollen .10 out of 12
Air Quality Not available.
Flu Activity Not available.
METAR KCID 250052Z 29012KT 10SM OVC021 01/M01 A2968 RMK AO2 SLP059 T00111006

More Conditions Fewer Conditions

10-Day Weather Forecast

Almanac

Astronomy

Dec. 24, 2014 Rise Set
Actual Time
Civil Twilight
Nautical Twilight
Astronomical Twilight
Moon
Length of Visible Light
Length of Day
Tomorrow will be .
, % of the Moon is Illuminated

Today's Extremes

State Highs State Lows

Community

WunderPhotos

Upload Photos

1,780,208 photos uploaded!

WunderBlogs® & News

Nearby

Air Quality

  Air Quality AQ Index Pollutant
Not available.

Snow Depth

Station Depth Elevation

Earthquake Activity

City Distance Mag. Time & Date
Minimum magnitude displayed is 2.5.

Coastal Water Temperatures

Place Temperature

Nearby Weather Stations